NCAR-RAP Real-Time Weather Data

Output produced by METARs form (12 May 2021  12:08 UTC)
found at http://weather.rap.ucar.edu/surface/
 
KDHT 121205Z AUTO 06005KT 6SM BR SCT009 OVC015 07/05 A3036 RMK AO2 T00670050
KDHT 121153Z AUTO 05005KT 7SM SCT009 OVC013 07/05 A3036 RMK AO2 SLP275 70001 T00670050 10067 20061 53004
KDHT 121115Z AUTO 06005KT 8SM FEW008 BKN012 OVC029 07/05 A3036 RMK AO2 T00670050
KDHT 121108Z AUTO 06006KT 8SM BKN012 OVC029 07/05 A3035 RMK AO2 T00670050
KDHT 121053Z AUTO 03006KT 7SM FEW007 SCT013 OVC029 07/05 A3035 RMK AO2 SLP271 T00670050
KDHT 121008Z AUTO 06007KT 8SM FEW008 BKN016 OVC030 07/05 A3034 RMK AO2 T00670050
KDHT 120953Z AUTO 05007KT 8SM SCT010 BKN016 OVC028 07/05 A3035 RMK AO2 SLP268 T00670050
KDHT 120950Z AUTO 05006KT 8SM SCT010 BKN016 OVC028 07/05 A3035 RMK AO2
KDHT 120933Z AUTO 05007KT 8SM OVC010 07/05 A3034 RMK AO2 CIG 007V014 T00670050
KDHT 120915Z AUTO 06009KT 8SM BKN009 OVC015 07/05 A3034 RMK AO2 CIG 007V011 T00670050
KDHT 120853Z AUTO 04006KT 8SM SCT009 OVC014 07/05 A3035 RMK AO2 SLP267 T00670050 50002
KDHT 120851Z AUTO 04005KT 8SM SCT009 OVC014 07/05 A3035 RMK AO2
KDHT 120753Z AUTO 03007KT 7SM BKN008 OVC021 07/06 A3034 RMK AO2 CIG 006V014 SLP263 T00670056
KDHT 120751Z AUTO 02007KT 7SM BKN008 BKN013 OVC021 07/06 A3034 RMK AO2
KDHT 120742Z AUTO 02006KT 8SM BKN010 BKN021 OVC031 07/06 A3034 RMK AO2 CIG 007V015 T00670056
KDHT 120731Z AUTO 01008KT 8SM SCT008 BKN021 OVC030 07/06 A3034 RMK AO2 T00670056
KDHT 120704Z AUTO 03007KT 8SM BKN008 BKN013 OVC029 07/06 A3034 RMK AO2 CIG 007V011 T00670056
KDHT 120653Z AUTO 04005KT 8SM BKN010 BKN014 OVC030 07/05 A3033 RMK AO2 CIG 007V011 SLP263 T00670050
KDHT 120651Z AUTO 04006KT 8SM BKN010 OVC014 07/05 A3034 RMK AO2 CIG 007V011
KDHT 120634Z AUTO 03008KT 8SM BKN008 BKN013 OVC028 07/05 A3034 RMK AO2 T00670050
KDHT 120615Z AUTO 03006KT 8SM SCT008 BKN020 OVC026 07/05 A3035 RMK AO2 T00670050
KDHT 120553Z AUTO 04009KT 7SM BKN009 OVC016 07/06 A3035 RMK AO2 CIG 007V011 SLP269 T00670056 10067 20061 400830050 51014
KDHT 120536Z AUTO 04007KT 7SM BKN010 OVC013 07/06 A3034 RMK AO2 CIG 007V011 T00670056
KDHT 120519Z AUTO 03007KT 8SM BKN008 BKN013 OVC026 07/06 A3035 RMK AO2 CIG 007V011 T00670056
KDHT 120512Z AUTO 03009KT 7SM SCT008 BKN011 OVC026 07/06 A3034 RMK AO2 T00670056
KDHT 120453Z AUTO 04010KT 7SM SCT008 OVC024 07/05 A3033 RMK AO2 SLP262 T00670050
KDHT 120429Z AUTO 03011KT 7SM SCT008 OVC027 07/06 A3034 RMK AO2 T00670056
KDHT 120415Z AUTO 03009KT 7SM BKN008 OVC027 07/06 A3034 RMK AO2 T00670056
KDHT 120353Z AUTO 04011KT 8SM SCT008 OVC026 07/05 A3033 RMK AO2 SLP264 T00670050
KDHT 120317Z AUTO 03012KT 8SM SCT008 SCT014 OVC023 07/06 A3032 RMK AO2 T00670056
KDHT 120310Z AUTO 03011KT 7SM SCT009 BKN013 OVC021 07/06 A3031 RMK AO2 T00670056
KDHT 120253Z AUTO 04013KT 8SM SCT010 SCT014 OVC021 07/05 A3030 RMK AO2 SLP254 T00670050 53029
KDHT 120234Z AUTO 06010KT 9SM BKN010 OVC015 07/05 A3029 RMK AO2 CIG 007V013 T00670050
KDHT 120153Z AUTO 06012KT 5SM BR OVC007 07/05 A3026 RMK AO2 SLP238 T00670050
KDHT 120113Z AUTO 05014KT 5SM BR OVC005 06/05 A3023 RMK AO2 T00610050
KDHT 120053Z AUTO 06014KT 6SM BR OVC004 06/05 A3022 RMK AO2 CIG 003V007 SLP226 T00610050
KDHT 120000Z AUTO 07013KT 5SM BR OVC004 07/06 A3020 RMK AO2 T00670056
KDHT 112353Z AUTO 05013KT 4SM BR OVC005 06/05 A3020 RMK AO2 SLP219 T00610050 10083 20061 53004
KDHT 112253Z AUTO 06011KT 7SM OVC006 07/05 A3019 RMK AO2 SLP213 T00670050